sensor_id;sensor_type;location;lat;lon;timestamp;P1;durP1;ratioP1;P2;durP2;ratioP2
76801;SDS011;66403;50.832;10.950;2024-02-26T00:02:34;3.58;;;2.65;;
76801;SDS011;66403;50.832;10.950;2024-02-26T00:07:37;4.35;;;1.55;;
76801;SDS011;66403;50.832;10.950;2024-02-26T00:12:39;2.53;;;1.52;;
76801;SDS011;66403;50.832;10.950;2024-02-26T00:17:39;2.35;;;1.73;;
76801;SDS011;66403;50.832;10.950;2024-02-26T00:22:40;1.42;;;1.33;;
76801;SDS011;66403;50.832;10.950;2024-02-26T00:27:40;2.72;;;1.50;;
76801;SDS011;66403;50.832;10.950;2024-02-26T00:32:41;4.53;;;2.15;;
76801;SDS011;66403;50.832;10.950;2024-02-26T00:37:42;4.50;;;1.88;;
76801;SDS011;66403;50.832;10.950;2024-02-26T00:42:44;3.30;;;1.60;;
76801;SDS011;66403;50.832;10.950;2024-02-26T00:47:46;2.45;;;1.42;;
76801;SDS011;66403;50.832;10.950;2024-02-26T00:52:47;5.28;;;1.70;;
76801;SDS011;66403;50.832;10.950;2024-02-26T00:57:48;1.90;;;1.17;;
76801;SDS011;66403;50.832;10.950;2024-02-26T01:02:48;2.83;;;1.52;;
76801;SDS011;66403;50.832;10.950;2024-02-26T01:07:48;2.25;;;1.30;;
76801;SDS011;66403;50.832;10.950;2024-02-26T01:12:49;2.47;;;1.83;;
76801;SDS011;66403;50.832;10.950;2024-02-26T01:17:50;4.82;;;1.52;;
76801;SDS011;66403;50.832;10.950;2024-02-26T01:22:51;2.90;;;1.65;;
76801;SDS011;66403;50.832;10.950;2024-02-26T01:27:51;1.55;;;1.15;;
76801;SDS011;66403;50.832;10.950;2024-02-26T01:32:52;2.35;;;1.77;;
76801;SDS011;66403;50.832;10.950;2024-02-26T01:37:52;2.40;;;1.38;;
76801;SDS011;66403;50.832;10.950;2024-02-26T01:42:53;3.15;;;1.60;;
76801;SDS011;66403;50.832;10.950;2024-02-26T01:47:53;2.00;;;1.17;;
76801;SDS011;66403;50.832;10.950;2024-02-26T01:52:54;1.88;;;1.20;;
76801;SDS011;66403;50.832;10.950;2024-02-26T01:57:56;3.13;;;1.42;;
76801;SDS011;66403;50.832;10.950;2024-02-26T02:02:56;2.45;;;1.05;;
76801;SDS011;66403;50.832;10.950;2024-02-26T02:07:57;1.80;;;1.13;;
76801;SDS011;66403;50.832;10.950;2024-02-26T02:12:58;2.67;;;1.40;;
76801;SDS011;66403;50.832;10.950;2024-02-26T02:17:58;2.67;;;1.95;;
76801;SDS011;66403;50.832;10.950;2024-02-26T02:22:59;2.65;;;1.75;;
76801;SDS011;66403;50.832;10.950;2024-02-26T02:28:00;2.10;;;0.90;;
76801;SDS011;66403;50.832;10.950;2024-02-26T02:33:00;2.25;;;1.05;;
76801;SDS011;66403;50.832;10.950;2024-02-26T02:38:02;3.28;;;1.25;;
76801;SDS011;66403;50.832;10.950;2024-02-26T02:43:03;2.38;;;1.42;;
76801;SDS011;66403;50.832;10.950;2024-02-26T02:48:04;1.25;;;0.93;;
76801;SDS011;66403;50.832;10.950;2024-02-26T02:53:05;1.58;;;1.20;;
76801;SDS011;66403;50.832;10.950;2024-02-26T02:58:05;1.58;;;1.10;;
76801;SDS011;66403;50.832;10.950;2024-02-26T03:03:06;2.80;;;1.73;;
76801;SDS011;66403;50.832;10.950;2024-02-26T03:08:06;1.50;;;0.82;;
76801;SDS011;66403;50.832;10.950;2024-02-26T03:13:07;3.45;;;1.17;;
76801;SDS011;66403;50.832;10.950;2024-02-26T03:18:07;1.75;;;1.02;;
76801;SDS011;66403;50.832;10.950;2024-02-26T03:23:08;1.73;;;1.20;;
76801;SDS011;66403;50.832;10.950;2024-02-26T03:28:11;0.95;;;0.82;;
76801;SDS011;66403;50.832;10.950;2024-02-26T03:33:12;1.73;;;0.82;;
76801;SDS011;66403;50.832;10.950;2024-02-26T03:38:13;1.63;;;1.33;;
76801;SDS011;66403;50.832;10.950;2024-02-26T03:43:13;2.20;;;1.65;;
76801;SDS011;66403;50.832;10.950;2024-02-26T03:48:14;3.40;;;1.60;;
76801;SDS011;66403;50.832;10.950;2024-02-26T03:53:14;2.65;;;1.10;;
76801;SDS011;66403;50.832;10.950;2024-02-26T03:58:15;1.67;;;1.30;;
76801;SDS011;66403;50.832;10.950;2024-02-26T04:03:15;2.50;;;1.13;;
76801;SDS011;66403;50.832;10.950;2024-02-26T04:08:16;1.55;;;1.05;;
76801;SDS011;66403;50.832;10.950;2024-02-26T04:13:16;2.40;;;1.70;;
76801;SDS011;66403;50.832;10.950;2024-02-26T04:18:17;2.65;;;1.25;;
76801;SDS011;66403;50.832;10.950;2024-02-26T04:23:18;2.70;;;1.42;;
76801;SDS011;66403;50.832;10.950;2024-02-26T04:28:18;2.42;;;1.77;;
76801;SDS011;66403;50.832;10.950;2024-02-26T04:33:20;2.80;;;1.90;;
76801;SDS011;66403;50.832;10.950;2024-02-26T04:38:21;2.72;;;1.45;;
76801;SDS011;66403;50.832;10.950;2024-02-26T04:43:22;1.83;;;1.30;;
76801;SDS011;66403;50.832;10.950;2024-02-26T04:48:23;2.00;;;1.13;;
76801;SDS011;66403;50.832;10.950;2024-02-26T04:53:23;4.25;;;2.00;;
76801;SDS011;66403;50.832;10.950;2024-02-26T04:58:24;3.47;;;1.55;;
76801;SDS011;66403;50.832;10.950;2024-02-26T05:03:24;2.05;;;1.55;;
76801;SDS011;66403;50.832;10.950;2024-02-26T05:08:25;3.38;;;1.55;;
76801;SDS011;66403;50.832;10.950;2024-02-26T05:13:25;1.50;;;1.33;;
76801;SDS011;66403;50.832;10.950;2024-02-26T05:18:26;3.88;;;2.00;;
76801;SDS011;66403;50.832;10.950;2024-02-26T05:23:27;2.67;;;1.73;;
76801;SDS011;66403;50.832;10.950;2024-02-26T05:28:27;3.50;;;1.48;;
76801;SDS011;66403;50.832;10.950;2024-02-26T05:33:27;2.50;;;1.23;;
76801;SDS011;66403;50.832;10.950;2024-02-26T05:38:28;4.82;;;1.85;;
76801;SDS011;66403;50.832;10.950;2024-02-26T05:43:28;4.07;;;1.35;;
76801;SDS011;66403;50.832;10.950;2024-02-26T05:48:29;2.97;;;0.98;;
76801;SDS011;66403;50.832;10.950;2024-02-26T05:53:32;2.88;;;2.50;;
76801;SDS011;66403;50.832;10.950;2024-02-26T05:58:32;1.63;;;1.50;;
76801;SDS011;66403;50.832;10.950;2024-02-26T06:03:33;6.10;;;3.08;;
76801;SDS011;66403;50.832;10.950;2024-02-26T06:08:33;4.75;;;2.40;;
76801;SDS011;66403;50.832;10.950;2024-02-26T06:13:34;2.72;;;1.45;;
76801;SDS011;66403;50.832;10.950;2024-02-26T06:18:34;6.18;;;1.58;;
76801;SDS011;66403;50.832;10.950;2024-02-26T06:23:35;3.08;;;1.80;;
76801;SDS011;66403;50.832;10.950;2024-02-26T06:28:35;2.20;;;1.38;;
76801;SDS011;66403;50.832;10.950;2024-02-26T06:33:36;2.60;;;1.35;;
76801;SDS011;66403;50.832;10.950;2024-02-26T06:38:36;3.00;;;1.92;;
76801;SDS011;66403;50.832;10.950;2024-02-26T06:43:37;5.78;;;2.58;;
76801;SDS011;66403;50.832;10.950;2024-02-26T06:48:37;2.85;;;1.83;;
76801;SDS011;66403;50.832;10.950;2024-02-26T06:53:40;3.42;;;2.10;;
76801;SDS011;66403;50.832;10.950;2024-02-26T06:58:41;3.20;;;1.98;;
76801;SDS011;66403;50.832;10.950;2024-02-26T07:03:41;5.28;;;2.72;;
76801;SDS011;66403;50.832;10.950;2024-02-26T07:08:42;3.58;;;2.08;;
76801;SDS011;66403;50.832;10.950;2024-02-26T07:13:42;3.30;;;1.85;;
76801;SDS011;66403;50.832;10.950;2024-02-26T07:18:43;3.47;;;2.75;;
76801;SDS011;66403;50.832;10.950;2024-02-26T07:23:43;3.42;;;2.03;;
76801;SDS011;66403;50.832;10.950;2024-02-26T07:28:44;3.55;;;2.53;;
76801;SDS011;66403;50.832;10.950;2024-02-26T07:33:44;3.05;;;2.03;;
76801;SDS011;66403;50.832;10.950;2024-02-26T07:38:44;4.30;;;2.75;;
76801;SDS011;66403;50.832;10.950;2024-02-26T07:43:45;2.90;;;1.83;;
76801;SDS011;66403;50.832;10.950;2024-02-26T07:48:45;4.18;;;2.35;;
76801;SDS011;66403;50.832;10.950;2024-02-26T07:53:46;3.60;;;2.42;;
76801;SDS011;66403;50.832;10.950;2024-02-26T07:58:46;5.82;;;2.35;;
76801;SDS011;66403;50.832;10.950;2024-02-26T08:03:47;6.68;;;3.42;;
76801;SDS011;66403;50.832;10.950;2024-02-26T08:08:47;6.68;;;3.40;;
76801;SDS011;66403;50.832;10.950;2024-02-26T08:13:48;6.38;;;4.50;;
76801;SDS011;66403;50.832;10.950;2024-02-26T08:18:48;5.47;;;3.90;;
76801;SDS011;66403;50.832;10.950;2024-02-26T08:23:49;12.25;;;4.55;;
76801;SDS011;66403;50.832;10.950;2024-02-26T08:28:49;15.18;;;10.82;;
76801;SDS011;66403;50.832;10.950;2024-02-26T08:33:51;16.17;;;9.40;;
76801;SDS011;66403;50.832;10.950;2024-02-26T08:38:52;13.98;;;7.60;;
76801;SDS011;66403;50.832;10.950;2024-02-26T08:43:52;8.88;;;5.47;;
76801;SDS011;66403;50.832;10.950;2024-02-26T08:48:53;10.57;;;6.03;;
76801;SDS011;66403;50.832;10.950;2024-02-26T08:53:53;12.93;;;7.45;;
76801;SDS011;66403;50.832;10.950;2024-02-26T08:58:54;13.82;;;7.35;;
76801;SDS011;66403;50.832;10.950;2024-02-26T09:03:56;17.83;;;11.85;;
76801;SDS011;66403;50.832;10.950;2024-02-26T09:08:57;17.73;;;8.35;;
76801;SDS011;66403;50.832;10.950;2024-02-26T09:13:57;16.13;;;9.00;;
76801;SDS011;66403;50.832;10.950;2024-02-26T09:18:58;35.05;;;19.38;;
76801;SDS011;66403;50.832;10.950;2024-02-26T09:23:58;16.13;;;8.13;;
76801;SDS011;66403;50.832;10.950;2024-02-26T09:28:59;10.30;;;6.68;;
76801;SDS011;66403;50.832;10.950;2024-02-26T09:33:59;8.07;;;4.68;;
76801;SDS011;66403;50.832;10.950;2024-02-26T09:38:59;4.38;;;2.92;;
76801;SDS011;66403;50.832;10.950;2024-02-26T09:44:00;4.57;;;2.97;;
76801;SDS011;66403;50.832;10.950;2024-02-26T09:49:02;5.10;;;3.40;;
76801;SDS011;66403;50.832;10.950;2024-02-26T09:54:04;7.43;;;4.10;;
76801;SDS011;66403;50.832;10.950;2024-02-26T09:59:10;6.57;;;3.70;;
76801;SDS011;66403;50.832;10.950;2024-02-26T10:04:11;12.07;;;5.30;;
76801;SDS011;66403;50.832;10.950;2024-02-26T10:09:12;6.75;;;4.05;;
76801;SDS011;66403;50.832;10.950;2024-02-26T10:14:14;10.15;;;5.63;;
76801;SDS011;66403;50.832;10.950;2024-02-26T10:19:24;7.30;;;5.47;;
76801;SDS011;66403;50.832;10.950;2024-02-26T10:24:27;6.63;;;4.65;;
76801;SDS011;66403;50.832;10.950;2024-02-26T10:29:28;8.93;;;5.45;;
76801;SDS011;66403;50.832;10.950;2024-02-26T10:34:29;8.05;;;5.15;;
76801;SDS011;66403;50.832;10.950;2024-02-26T10:39:29;10.50;;;6.18;;
76801;SDS011;66403;50.832;10.950;2024-02-26T10:44:30;11.82;;;7.25;;
76801;SDS011;66403;50.832;10.950;2024-02-26T10:49:31;9.35;;;5.45;;
76801;SDS011;66403;50.832;10.950;2024-02-26T10:54:34;22.02;;;12.25;;
76801;SDS011;66403;50.832;10.950;2024-02-26T10:59:35;20.67;;;13.85;;
76801;SDS011;66403;50.832;10.950;2024-02-26T11:04:37;14.48;;;9.00;;
76801;SDS011;66403;50.832;10.950;2024-02-26T11:09:38;14.05;;;8.02;;
76801;SDS011;66403;50.832;10.950;2024-02-26T11:14:45;9.18;;;6.00;;
76801;SDS011;66403;50.832;10.950;2024-02-26T11:19:46;7.72;;;5.88;;
76801;SDS011;66403;50.832;10.950;2024-02-26T11:24:48;15.20;;;8.80;;
76801;SDS011;66403;50.832;10.950;2024-02-26T11:29:50;11.43;;;8.43;;
76801;SDS011;66403;50.832;10.950;2024-02-26T11:34:53;9.38;;;5.97;;
76801;SDS011;66403;50.832;10.950;2024-02-26T11:39:54;9.30;;;5.70;;
76801;SDS011;66403;50.832;10.950;2024-02-26T11:44:54;24.87;;;13.43;;
76801;SDS011;66403;50.832;10.950;2024-02-26T11:50:00;12.85;;;5.95;;
76801;SDS011;66403;50.832;10.950;2024-02-26T11:55:36;9.23;;;5.78;;
76801;SDS011;66403;50.832;10.950;2024-02-26T12:00:39;12.68;;;6.30;;
76801;SDS011;66403;50.832;10.950;2024-02-26T12:05:42;7.80;;;5.68;;
76801;SDS011;66403;50.832;10.950;2024-02-26T12:10:43;10.48;;;5.50;;
76801;SDS011;66403;50.832;10.950;2024-02-26T12:15:45;24.38;;;15.93;;
76801;SDS011;66403;50.832;10.950;2024-02-26T12:20:46;20.38;;;12.55;;
76801;SDS011;66403;50.832;10.950;2024-02-26T12:25:49;11.75;;;7.45;;
76801;SDS011;66403;50.832;10.950;2024-02-26T12:30:49;11.50;;;6.47;;
76801;SDS011;66403;50.832;10.950;2024-02-26T12:35:50;11.23;;;7.40;;
76801;SDS011;66403;50.832;10.950;2024-02-26T12:40:50;13.57;;;8.32;;
76801;SDS011;66403;50.832;10.950;2024-02-26T12:45:51;12.15;;;7.82;;
76801;SDS011;66403;50.832;10.950;2024-02-26T12:50:52;15.73;;;8.75;;
76801;SDS011;66403;50.832;10.950;2024-02-26T12:55:54;18.67;;;9.73;;
76801;SDS011;66403;50.832;10.950;2024-02-26T13:00:55;15.25;;;10.57;;
76801;SDS011;66403;50.832;10.950;2024-02-26T13:05:55;19.20;;;10.57;;
76801;SDS011;66403;50.832;10.950;2024-02-26T13:10:56;14.73;;;10.55;;
76801;SDS011;66403;50.832;10.950;2024-02-26T13:16:03;16.33;;;10.77;;
76801;SDS011;66403;50.832;10.950;2024-02-26T13:21:07;18.42;;;12.02;;
76801;SDS011;66403;50.832;10.950;2024-02-26T13:26:12;70.28;;;38.40;;
76801;SDS011;66403;50.832;10.950;2024-02-26T13:31:13;18.70;;;10.90;;
76801;SDS011;66403;50.832;10.950;2024-02-26T13:36:13;17.30;;;11.27;;
76801;SDS011;66403;50.832;10.950;2024-02-26T13:41:14;15.07;;;10.40;;
76801;SDS011;66403;50.832;10.950;2024-02-26T13:46:15;16.58;;;10.13;;
76801;SDS011;66403;50.832;10.950;2024-02-26T13:51:15;16.30;;;8.80;;
76801;SDS011;66403;50.832;10.950;2024-02-26T13:56:17;15.55;;;9.38;;
76801;SDS011;66403;50.832;10.950;2024-02-26T14:01:18;13.93;;;8.73;;
76801;SDS011;66403;50.832;10.950;2024-02-26T14:06:18;19.90;;;10.63;;
76801;SDS011;66403;50.832;10.950;2024-02-26T14:11:19;17.75;;;9.40;;
76801;SDS011;66403;50.832;10.950;2024-02-26T14:16:20;64.30;;;31.40;;
76801;SDS011;66403;50.832;10.950;2024-02-26T14:21:20;16.58;;;10.27;;
76801;SDS011;66403;50.832;10.950;2024-02-26T14:26:21;16.30;;;10.80;;
76801;SDS011;66403;50.832;10.950;2024-02-26T14:31:22;19.08;;;10.32;;
76801;SDS011;66403;50.832;10.950;2024-02-26T14:36:23;18.05;;;9.80;;
76801;SDS011;66403;50.832;10.950;2024-02-26T14:41:23;13.55;;;9.00;;
76801;SDS011;66403;50.832;10.950;2024-02-26T14:46:24;15.48;;;9.25;;
76801;SDS011;66403;50.832;10.950;2024-02-26T14:51:24;15.75;;;9.70;;
76801;SDS011;66403;50.832;10.950;2024-02-26T14:56:25;16.20;;;10.35;;
76801;SDS011;66403;50.832;10.950;2024-02-26T15:01:25;14.32;;;8.82;;
76801;SDS011;66403;50.832;10.950;2024-02-26T15:06:26;15.38;;;8.68;;
76801;SDS011;66403;50.832;10.950;2024-02-26T15:11:26;17.23;;;10.68;;
76801;SDS011;66403;50.832;10.950;2024-02-26T15:16:27;15.32;;;8.40;;
76801;SDS011;66403;50.832;10.950;2024-02-26T15:21:27;20.98;;;10.90;;
76801;SDS011;66403;50.832;10.950;2024-02-26T15:26:27;15.80;;;7.72;;
76801;SDS011;66403;50.832;10.950;2024-02-26T15:31:28;16.50;;;9.95;;
76801;SDS011;66403;50.832;10.950;2024-02-26T15:36:29;19.13;;;11.05;;
76801;SDS011;66403;50.832;10.950;2024-02-26T15:41:29;14.02;;;8.48;;
76801;SDS011;66403;50.832;10.950;2024-02-26T15:46:30;15.90;;;8.18;;
76801;SDS011;66403;50.832;10.950;2024-02-26T15:51:32;11.30;;;8.07;;
76801;SDS011;66403;50.832;10.950;2024-02-26T15:56:32;14.00;;;7.75;;
76801;SDS011;66403;50.832;10.950;2024-02-26T16:01:34;12.30;;;7.95;;
76801;SDS011;66403;50.832;10.950;2024-02-26T16:06:36;21.27;;;11.88;;
76801;SDS011;66403;50.832;10.950;2024-02-26T16:11:39;14.90;;;8.68;;
76801;SDS011;66403;50.832;10.950;2024-02-26T16:16:41;14.98;;;9.15;;
76801;SDS011;66403;50.832;10.950;2024-02-26T16:22:03;14.23;;;8.63;;
76801;SDS011;66403;50.832;10.950;2024-02-26T16:27:04;14.15;;;9.05;;
76801;SDS011;66403;50.832;10.950;2024-02-26T16:32:05;12.82;;;7.85;;
76801;SDS011;66403;50.832;10.950;2024-02-26T16:37:09;14.75;;;9.60;;
76801;SDS011;66403;50.832;10.950;2024-02-26T16:42:10;14.70;;;8.40;;
76801;SDS011;66403;50.832;10.950;2024-02-26T16:47:11;10.02;;;7.63;;
76801;SDS011;66403;50.832;10.950;2024-02-26T16:52:12;13.60;;;8.27;;
76801;SDS011;66403;50.832;10.950;2024-02-26T16:57:12;12.43;;;6.55;;
76801;SDS011;66403;50.832;10.950;2024-02-26T17:02:13;10.80;;;6.30;;
76801;SDS011;66403;50.832;10.950;2024-02-26T17:07:13;12.95;;;6.88;;
76801;SDS011;66403;50.832;10.950;2024-02-26T17:12:16;15.05;;;8.45;;
76801;SDS011;66403;50.832;10.950;2024-02-26T17:17:17;21.63;;;8.43;;
76801;SDS011;66403;50.832;10.950;2024-02-26T17:22:18;11.70;;;7.20;;
76801;SDS011;66403;50.832;10.950;2024-02-26T17:27:19;11.35;;;6.30;;
76801;SDS011;66403;50.832;10.950;2024-02-26T17:32:19;14.77;;;9.90;;
76801;SDS011;66403;50.832;10.950;2024-02-26T17:37:20;12.23;;;8.10;;
76801;SDS011;66403;50.832;10.950;2024-02-26T17:42:20;11.98;;;6.97;;
76801;SDS011;66403;50.832;10.950;2024-02-26T17:47:21;13.40;;;7.28;;
76801;SDS011;66403;50.832;10.950;2024-02-26T17:52:21;16.52;;;10.52;;
76801;SDS011;66403;50.832;10.950;2024-02-26T17:57:22;16.83;;;8.85;;
76801;SDS011;66403;50.832;10.950;2024-02-26T18:02:22;15.30;;;8.88;;
76801;SDS011;66403;50.832;10.950;2024-02-26T18:07:23;17.13;;;9.25;;
76801;SDS011;66403;50.832;10.950;2024-02-26T18:12:23;16.98;;;9.02;;
76801;SDS011;66403;50.832;10.950;2024-02-26T18:17:24;16.35;;;7.95;;
76801;SDS011;66403;50.832;10.950;2024-02-26T18:22:24;13.88;;;8.02;;
76801;SDS011;66403;50.832;10.950;2024-02-26T18:27:25;14.50;;;8.60;;
76801;SDS011;66403;50.832;10.950;2024-02-26T18:32:26;14.02;;;7.68;;
76801;SDS011;66403;50.832;10.950;2024-02-26T18:37:27;15.05;;;8.98;;
76801;SDS011;66403;50.832;10.950;2024-02-26T18:42:28;16.63;;;9.70;;
76801;SDS011;66403;50.832;10.950;2024-02-26T18:47:29;16.30;;;9.00;;
76801;SDS011;66403;50.832;10.950;2024-02-26T18:52:30;16.00;;;8.93;;
76801;SDS011;66403;50.832;10.950;2024-02-26T18:57:30;15.55;;;9.55;;
76801;SDS011;66403;50.832;10.950;2024-02-26T19:02:31;17.23;;;8.93;;
76801;SDS011;66403;50.832;10.950;2024-02-26T19:07:31;18.63;;;11.65;;
76801;SDS011;66403;50.832;10.950;2024-02-26T19:12:32;16.95;;;9.98;;
76801;SDS011;66403;50.832;10.950;2024-02-26T19:17:32;16.58;;;10.13;;
76801;SDS011;66403;50.832;10.950;2024-02-26T19:22:33;17.38;;;10.80;;
76801;SDS011;66403;50.832;10.950;2024-02-26T19:27:33;15.60;;;8.80;;
76801;SDS011;66403;50.832;10.950;2024-02-26T19:32:33;12.27;;;8.70;;
76801;SDS011;66403;50.832;10.950;2024-02-26T19:37:34;14.25;;;8.52;;
76801;SDS011;66403;50.832;10.950;2024-02-26T19:42:34;16.10;;;9.45;;
76801;SDS011;66403;50.832;10.950;2024-02-26T19:47:35;12.02;;;7.38;;
76801;SDS011;66403;50.832;10.950;2024-02-26T19:52:38;15.10;;;7.88;;
76801;SDS011;66403;50.832;10.950;2024-02-26T19:57:39;16.33;;;9.10;;
76801;SDS011;66403;50.832;10.950;2024-02-26T20:02:39;15.27;;;9.50;;
76801;SDS011;66403;50.832;10.950;2024-02-26T20:07:40;13.50;;;8.27;;
76801;SDS011;66403;50.832;10.950;2024-02-26T20:12:41;13.55;;;8.35;;
76801;SDS011;66403;50.832;10.950;2024-02-26T20:17:41;15.95;;;7.82;;
76801;SDS011;66403;50.832;10.950;2024-02-26T20:22:42;17.73;;;14.50;;
76801;SDS011;66403;50.832;10.950;2024-02-26T20:27:43;13.57;;;7.55;;
76801;SDS011;66403;50.832;10.950;2024-02-26T20:32:43;19.55;;;10.32;;
76801;SDS011;66403;50.832;10.950;2024-02-26T20:37:44;17.30;;;11.10;;
76801;SDS011;66403;50.832;10.950;2024-02-26T20:42:47;15.02;;;9.32;;
76801;SDS011;66403;50.832;10.950;2024-02-26T20:47:48;13.43;;;8.68;;
76801;SDS011;66403;50.832;10.950;2024-02-26T20:52:51;13.55;;;7.97;;
76801;SDS011;66403;50.832;10.950;2024-02-26T20:57:51;15.10;;;8.20;;
76801;SDS011;66403;50.832;10.950;2024-02-26T21:02:51;14.20;;;9.13;;
76801;SDS011;66403;50.832;10.950;2024-02-26T21:07:52;12.35;;;7.65;;
76801;SDS011;66403;50.832;10.950;2024-02-26T21:12:52;10.80;;;7.45;;
76801;SDS011;66403;50.832;10.950;2024-02-26T21:17:53;12.23;;;7.65;;
76801;SDS011;66403;50.832;10.950;2024-02-26T21:22:53;16.10;;;8.77;;
76801;SDS011;66403;50.832;10.950;2024-02-26T21:27:54;14.35;;;8.65;;
76801;SDS011;66403;50.832;10.950;2024-02-26T21:32:55;15.00;;;9.25;;
76801;SDS011;66403;50.832;10.950;2024-02-26T21:37:56;15.82;;;8.52;;
76801;SDS011;66403;50.832;10.950;2024-02-26T21:42:56;18.92;;;9.38;;
76801;SDS011;66403;50.832;10.950;2024-02-26T21:47:56;16.58;;;9.98;;
76801;SDS011;66403;50.832;10.950;2024-02-26T21:52:57;17.13;;;9.77;;
76801;SDS011;66403;50.832;10.950;2024-02-26T21:57:57;14.48;;;9.27;;
76801;SDS011;66403;50.832;10.950;2024-02-26T22:02:58;18.27;;;9.60;;
76801;SDS011;66403;50.832;10.950;2024-02-26T22:07:58;13.57;;;9.00;;
76801;SDS011;66403;50.832;10.950;2024-02-26T22:12:59;15.80;;;10.50;;
76801;SDS011;66403;50.832;10.950;2024-02-26T22:17:59;16.67;;;10.25;;
76801;SDS011;66403;50.832;10.950;2024-02-26T22:23:00;16.90;;;9.60;;
76801;SDS011;66403;50.832;10.950;2024-02-26T22:28:01;17.00;;;9.55;;
76801;SDS011;66403;50.832;10.950;2024-02-26T22:33:01;18.17;;;9.27;;
76801;SDS011;66403;50.832;10.950;2024-02-26T22:38:02;14.52;;;9.23;;
76801;SDS011;66403;50.832;10.950;2024-02-26T22:43:03;18.63;;;10.02;;
76801;SDS011;66403;50.832;10.950;2024-02-26T22:48:06;15.50;;;10.05;;
76801;SDS011;66403;50.832;10.950;2024-02-26T22:53:07;21.45;;;11.30;;
76801;SDS011;66403;50.832;10.950;2024-02-26T22:58:08;17.50;;;9.20;;
76801;SDS011;66403;50.832;10.950;2024-02-26T23:03:09;15.55;;;9.48;;
76801;SDS011;66403;50.832;10.950;2024-02-26T23:08:09;16.42;;;9.80;;
76801;SDS011;66403;50.832;10.950;2024-02-26T23:13:12;19.30;;;9.50;;
76801;SDS011;66403;50.832;10.950;2024-02-26T23:18:13;16.75;;;10.10;;
76801;SDS011;66403;50.832;10.950;2024-02-26T23:23:14;13.82;;;8.98;;
76801;SDS011;66403;50.832;10.950;2024-02-26T23:28:14;13.90;;;8.63;;
76801;SDS011;66403;50.832;10.950;2024-02-26T23:33:15;18.10;;;9.85;;
76801;SDS011;66403;50.832;10.950;2024-02-26T23:38:15;15.77;;;9.25;;
76801;SDS011;66403;50.832;10.950;2024-02-26T23:43:16;17.75;;;10.75;;
76801;SDS011;66403;50.832;10.950;2024-02-26T23:48:16;14.60;;;9.43;;
76801;SDS011;66403;50.832;10.950;2024-02-26T23:53:17;13.93;;;9.88;;
76801;SDS011;66403;50.832;10.950;2024-02-26T23:58:20;17.77;;;11.18;;
